createdAt,value
2023-01-11T00:01:09.097Z,100612.13
2023-01-11T00:03:36.569Z,100608.56
2023-01-11T00:06:04.841Z,100605.91
2023-01-11T00:08:32.339Z,100606.72
2023-01-11T00:11:02.211Z,100609.22
2023-01-11T00:13:31.248Z,100604.78
2023-01-11T00:16:06.946Z,100606.47
2023-01-11T00:18:35.801Z,100619.53
2023-01-11T00:21:05.593Z,100605.41
2023-01-11T00:23:36.213Z,100602.69
2023-01-11T00:26:11.773Z,100605.25
2023-01-11T00:28:39.549Z,100604.28
2023-01-11T00:31:08.102Z,100589.38
2023-01-11T00:33:35.756Z,100591.09
2023-01-11T00:36:03.280Z,100585.75
2023-01-11T00:39:02.974Z,100576.03
2023-01-11T00:41:48.918Z,100577.72
2023-01-11T00:44:35.165Z,100575.00
2023-01-11T00:47:21.159Z,100574.06
2023-01-11T00:49:48.583Z,100570.47
2023-01-11T00:52:16.000Z,100568.63
2023-01-11T00:54:43.546Z,100565.91
2023-01-11T00:57:11.040Z,100565.84
2023-01-11T00:59:41.804Z,100561.38
2023-01-11T01:02:11.240Z,100561.28
2023-01-11T01:04:40.096Z,100565.59
2023-01-11T01:07:08.702Z,100562.03
2023-01-11T01:09:36.180Z,100559.38
2023-01-11T01:12:04.140Z,100556.75
2023-01-11T01:14:33.257Z,100560.22
2023-01-11T01:17:07.157Z,100552.34
2023-01-11T01:19:38.274Z,100562.00
2023-01-11T01:22:05.756Z,100559.38
2023-01-11T01:24:34.128Z,100561.13
2023-01-11T01:27:01.559Z,100558.47
2023-01-11T01:29:29.316Z,100552.34
2023-01-11T01:31:56.715Z,100561.09
2023-01-11T01:34:24.180Z,100562.81
2023-01-11T01:36:51.675Z,100569.00
2023-01-11T01:39:19.162Z,100562.84
2023-01-11T01:41:46.984Z,100557.59
2023-01-11T01:44:55.089Z,100561.97
2023-01-11T01:47:37.616Z,100564.66
2023-01-11T01:50:14.544Z,100560.28
2023-01-11T01:52:47.169Z,100557.66
2023-01-11T01:55:25.247Z,100554.09
2023-01-11T01:57:55.148Z,100552.41
2023-01-11T02:00:22.609Z,100554.16
2023-01-11T02:02:52.661Z,100559.38
2023-01-11T02:05:20.936Z,100563.72
2023-01-11T02:07:48.517Z,100563.66
2023-01-11T02:10:20.515Z,100551.34
2023-01-11T02:12:59.587Z,100551.34
2023-01-11T02:15:28.647Z,100551.34
2023-01-11T02:17:56.041Z,100553.97
2023-01-11T02:20:59.230Z,100547.81
2023-01-11T02:23:54.413Z,100546.00
2023-01-11T02:26:49.099Z,100537.19
2023-01-11T02:29:56.295Z,100544.19
2023-01-11T02:33:04.046Z,100536.25
2023-01-11T02:35:39.983Z,100541.50
2023-01-11T02:38:32.011Z,100523.94
2023-01-11T02:41:16.384Z,100530.03
2023-01-11T02:44:18.333Z,100534.38
2023-01-11T02:47:00.107Z,100527.28
2023-01-11T02:49:40.387Z,100528.09
2023-01-11T02:52:21.760Z,100516.72
2023-01-11T02:54:57.386Z,100510.56
2023-01-11T02:57:29.384Z,100522.81
2023-01-11T02:59:59.183Z,100520.16
2023-01-11T03:02:27.519Z,100520.97
2023-01-11T03:04:54.978Z,100520.88
2023-01-11T03:07:51.541Z,100511.97
2023-01-11T03:11:08.474Z,100510.28
2023-01-11T03:13:57.769Z,100512.91
2023-01-11T03:16:37.438Z,100507.59
2023-01-11T03:19:18.591Z,100505.81
2023-01-11T03:22:16.841Z,100501.38
2023-01-11T03:25:08.746Z,100506.63
2023-01-11T03:27:40.401Z,100507.66
2023-01-11T03:30:28.586Z,100500.56
2023-01-11T03:33:13.519Z,100517.97
2023-01-11T03:35:48.546Z,100511.72
2023-01-11T03:38:36.386Z,100513.38
2023-01-11T03:41:21.247Z,100514.28
2023-01-11T03:43:54.285Z,100509.88
2023-01-11T03:46:34.020Z,100516.84
2023-01-11T03:49:13.524Z,100523.81
2023-01-11T03:51:45.770Z,100502.75
2023-01-11T03:54:24.866Z,100515.81
2023-01-11T03:57:05.685Z,100518.44
2023-01-11T03:59:34.656Z,100519.34
2023-01-11T04:02:02.642Z,100528.88
2023-01-11T04:04:30.207Z,100522.69
2023-01-11T04:06:57.708Z,100518.25
2023-01-11T04:09:25.092Z,100512.97
2023-01-11T04:11:52.527Z,100520.84
2023-01-11T04:14:19.940Z,100518.16
2023-01-11T04:16:47.329Z,100516.38
2023-01-11T04:19:14.810Z,100531.28
2023-01-11T04:21:42.211Z,100525.06
2023-01-11T04:24:09.594Z,100524.19
2023-01-11T04:26:37.118Z,100531.16
2023-01-11T04:29:04.511Z,100539.03
2023-01-11T04:31:32.456Z,100533.72
2023-01-11T04:33:59.926Z,100535.50
2023-01-11T04:36:28.681Z,100525.81
2023-01-11T04:38:56.078Z,100538.06
2023-01-11T04:41:42.487Z,100528.34
2023-01-11T04:44:10.649Z,100543.28
2023-01-11T04:46:38.017Z,100537.97
2023-01-11T04:49:05.417Z,100545.75
2023-01-11T04:51:32.840Z,100538.69
2023-01-11T04:54:00.209Z,100538.69
2023-01-11T04:56:29.188Z,100541.25
2023-01-11T04:58:56.726Z,100538.59
2023-01-11T05:01:24.092Z,100535.91
2023-01-11T05:03:51.597Z,100529.72
2023-01-11T05:06:27.735Z,100530.56
2023-01-11T05:08:55.225Z,100553.31
2023-01-11T05:11:22.760Z,100549.75
2023-01-11T05:13:50.300Z,100551.50
2023-01-11T05:16:26.520Z,100549.59
2023-01-11T05:18:57.240Z,100555.66
2023-01-11T05:21:32.269Z,100546.81
2023-01-11T05:24:03.941Z,100569.53
2023-01-11T05:26:34.839Z,100562.63
2023-01-11T05:29:07.090Z,100558.16
2023-01-11T05:31:37.595Z,100563.31
2023-01-11T05:34:09.385Z,100564.06
2023-01-11T05:36:37.613Z,100575.41
2023-01-11T05:39:06.332Z,100577.06
2023-01-11T05:41:34.362Z,100578.72
2023-01-11T05:44:20.462Z,100576.88
2023-01-11T05:46:47.979Z,100577.78
2023-01-11T05:49:16.037Z,100575.06
2023-01-11T05:51:43.754Z,100575.88
2023-01-11T05:54:15.014Z,100566.22
2023-01-11T05:56:42.932Z,100575.00
2023-01-11T05:59:11.676Z,100575.88
2023-01-11T06:01:39.859Z,100577.59
2023-01-11T06:04:08.551Z,100568.84
2023-01-11T06:06:36.255Z,100569.69
2023-01-11T06:09:03.822Z,100567.06
2023-01-11T06:11:31.629Z,100568.84
2023-01-11T06:13:59.140Z,100572.34
2023-01-11T06:16:26.569Z,100570.59
2023-01-11T06:18:54.446Z,100567.94
2023-01-11T06:21:22.306Z,100577.59
2023-01-11T06:23:51.205Z,100582.88
2023-01-11T06:26:21.741Z,100591.66
2023-01-11T06:28:51.139Z,100602.19
2023-01-11T06:31:19.311Z,100614.53
2023-01-11T06:33:47.314Z,100609.41
2023-01-11T06:36:16.320Z,100612.19
2023-01-11T06:38:44.362Z,100619.41
2023-01-11T06:41:13.425Z,100631.94
2023-01-11T06:43:41.975Z,100635.63
2023-01-11T06:46:15.626Z,100640.22
2023-01-11T06:48:49.912Z,100642.16
2023-01-11T06:51:17.622Z,100651.09
2023-01-11T06:53:46.469Z,100657.41
2023-01-11T06:56:18.959Z,100666.25
2023-01-11T06:58:48.066Z,100669.94
2023-01-11T07:01:18.256Z,100676.19
2023-01-11T07:03:45.976Z,100664.06
2023-01-11T07:06:13.986Z,100667.66
2023-01-11T07:08:42.600Z,100687.91
2023-01-11T07:11:10.195Z,100703.78
2023-01-11T07:13:37.671Z,100689.81
2023-01-11T07:16:05.167Z,100687.28
2023-01-11T07:18:33.426Z,100694.38
2023-01-11T07:21:01.011Z,100696.19
2023-01-11T07:23:28.428Z,100695.38
2023-01-11T07:25:56.190Z,100693.72
2023-01-11T07:28:23.695Z,100700.75
2023-01-11T07:30:59.810Z,100722.63
2023-01-11T07:33:27.993Z,100711.38
2023-01-11T07:35:55.828Z,100717.50
2023-01-11T07:38:23.493Z,100729.78
2023-01-11T07:40:51.001Z,100733.31
2023-01-11T07:43:20.069Z,100743.00
2023-01-11T07:45:50.840Z,100738.69
2023-01-11T07:48:25.002Z,100733.44
2023-01-11T07:50:53.954Z,100740.47
2023-01-11T07:53:25.463Z,100745.81
2023-01-11T07:55:55.513Z,100756.50
2023-01-11T07:58:23.677Z,100758.28
2023-01-11T08:00:51.308Z,100774.03
2023-01-11T08:03:18.936Z,100770.53
2023-01-11T08:05:52.900Z,100787.16
2023-01-11T08:08:21.259Z,100797.78
2023-01-11T08:11:11.845Z,100803.84
2023-01-11T08:13:58.072Z,100807.41
2023-01-11T08:16:27.324Z,100804.75
2023-01-11T08:18:54.855Z,100800.44
2023-01-11T08:21:22.572Z,100813.53
2023-01-11T08:23:50.066Z,100817.91
2023-01-11T08:26:18.210Z,100808.34
2023-01-11T08:28:46.568Z,100823.28
2023-01-11T08:31:14.223Z,100828.59
2023-01-11T08:33:41.842Z,100836.47
2023-01-11T08:36:11.984Z,100837.38
2023-01-11T08:38:39.780Z,100852.31
2023-01-11T08:41:10.653Z,100865.50
2023-01-11T08:43:38.642Z,100855.91
2023-01-11T08:46:07.169Z,100865.53
2023-01-11T08:48:34.836Z,100871.72
2023-01-11T08:51:02.880Z,100879.56
2023-01-11T08:53:30.295Z,100877.84
2023-01-11T08:55:57.698Z,100876.94
2023-01-11T08:58:25.536Z,100882.19
2023-01-11T09:00:53.121Z,100887.44
2023-01-11T09:03:20.750Z,100884.81
2023-01-11T09:05:48.214Z,100888.34
2023-01-11T09:08:15.689Z,100883.97
2023-01-11T09:10:43.068Z,100885.72
2023-01-11T09:13:10.481Z,100895.34
2023-01-11T09:15:38.014Z,100903.22
2023-01-11T09:18:05.644Z,100898.81
2023-01-11T09:20:33.506Z,100899.66
2023-01-11T09:23:01.029Z,100902.38
2023-01-11T09:25:28.460Z,100892.75
2023-01-11T09:27:55.988Z,100900.66
2023-01-11T09:30:24.735Z,100899.81
2023-01-11T09:32:53.000Z,100890.28
2023-01-11T09:35:21.869Z,100892.09
2023-01-11T09:37:56.034Z,100897.47
2023-01-11T09:40:52.351Z,100902.81
2023-01-11T09:43:27.352Z,100914.34
2023-01-11T09:46:02.649Z,100912.69
2023-01-11T09:48:44.732Z,100918.91
2023-01-11T09:51:15.993Z,100920.81
2023-01-11T09:53:50.351Z,100920.03
2023-01-11T09:56:29.579Z,100927.13
2023-01-11T09:59:20.821Z,100926.31
2023-01-11T10:02:05.531Z,100931.69
2023-01-11T10:04:37.509Z,100929.94
2023-01-11T10:18:29.452Z,100947.56
2023-01-11T10:18:39.289Z,100946.75
2023-01-11T10:21:14.991Z,100951.06
2023-01-11T10:24:01.325Z,100949.25
2023-01-11T10:26:40.026Z,100952.63
2023-01-11T10:29:20.673Z,100951.63
2023-01-11T10:32:13.691Z,100961.16
2023-01-11T10:34:58.288Z,100963.66
2023-01-11T10:38:02.120Z,100953.13
2023-01-11T10:40:57.611Z,100952.22
2023-01-11T10:43:29.541Z,100958.25
2023-01-11T10:46:08.556Z,100952.03
2023-01-11T10:48:45.623Z,100948.44
2023-01-11T10:51:47.488Z,100951.81
2023-01-11T10:54:33.324Z,100957.88
2023-01-11T10:57:35.654Z,100957.72
2023-01-11T11:00:31.522Z,100960.25
2023-01-11T11:03:40.045Z,100949.59
2023-01-11T11:06:32.847Z,100947.75
2023-01-11T11:09:23.550Z,100956.34
2023-01-11T11:12:00.805Z,100954.50
2023-01-11T11:14:42.127Z,100954.38
2023-01-11T11:17:36.123Z,100957.72
2023-01-11T11:20:18.784Z,100963.78
2023-01-11T11:22:50.835Z,100954.06
2023-01-11T11:25:33.163Z,100951.41
2023-01-11T11:28:28.962Z,100953.94
2023-01-11T11:31:01.832Z,100956.53
2023-01-11T11:33:36.369Z,100960.84
2023-01-11T11:36:14.727Z,100964.25
2023-01-11T11:39:09.127Z,100975.50
2023-01-11T11:41:56.278Z,100974.53
2023-01-11T11:44:27.656Z,100978.91
2023-01-11T11:47:03.940Z,100977.00
2023-01-11T11:49:34.875Z,100980.47
2023-01-11T11:52:05.627Z,100987.50
2023-01-11T11:54:43.343Z,100988.31
2023-01-11T11:57:23.202Z,100990.94
2023-01-11T12:00:26.692Z,100988.34
2023-01-11T12:03:10.903Z,100995.28
2023-01-11T12:05:48.858Z,100988.19
2023-01-11T12:08:17.770Z,100991.53
2023-01-11T12:10:55.134Z,100988.72
2023-01-11T12:13:36.396Z,100987.75
2023-01-11T12:16:18.158Z,100987.69
2023-01-11T12:18:45.906Z,100998.16
2023-01-11T12:21:20.626Z,100991.09
2023-01-11T12:24:09.080Z,100990.94
2023-01-11T12:27:22.401Z,100984.59
2023-01-11T12:30:29.215Z,100995.94
2023-01-11T12:33:29.076Z,100988.88
2023-01-11T12:36:09.230Z,100991.75
2023-01-11T12:38:53.824Z,101001.56
2023-01-11T12:41:57.488Z,101006.09
2023-01-11T12:44:52.689Z,101001.00
2023-01-11T12:48:28.210Z,100998.41
2023-01-11T12:51:01.755Z,101000.22
2023-01-11T12:53:41.180Z,101001.94
2023-01-11T12:56:35.904Z,101004.50
2023-01-11T12:59:44.740Z,101008.75
2023-01-11T13:02:56.583Z,101001.53
2023-01-11T13:05:51.327Z,101004.13
2023-01-11T13:08:46.137Z,101011.22
2023-01-11T13:11:52.235Z,101011.34
2023-01-11T13:14:29.905Z,101017.50
2023-01-11T13:17:21.382Z,101010.44
2023-01-11T13:20:24.543Z,101019.22
2023-01-11T13:23:11.957Z,101015.75
2023-01-11T13:25:46.353Z,101016.75
2023-01-11T13:28:44.340Z,101019.44
2023-01-11T13:31:14.751Z,101014.97
2023-01-11T13:33:53.577Z,101023.72
2023-01-11T13:36:33.283Z,101019.31
2023-01-11T13:40:06.182Z,101027.16
2023-01-11T13:42:51.693Z,101018.44
2023-01-11T13:45:25.486Z,101029.84
2023-01-11T13:48:18.274Z,101029.06
2023-01-11T13:51:04.546Z,101010.75
2023-01-11T13:53:43.789Z,101019.63
2023-01-11T13:56:47.392Z,101017.97
2023-01-11T13:59:36.585Z,101017.16
2023-01-11T14:02:21.891Z,101025.88
2023-01-11T14:05:14.535Z,101011.00
2023-01-11T14:08:03.697Z,101011.97
2023-01-11T14:10:46.278Z,101019.94
2023-01-11T14:14:17.618Z,101012.13
2023-01-11T14:17:26.230Z,101001.75
2023-01-11T14:20:26.153Z,101002.72
2023-01-11T14:23:12.425Z,101002.81
2023-01-11T14:26:44.228Z,101009.03
2023-01-11T14:29:52.907Z,100996.94
2023-01-11T14:32:37.654Z,101006.63
2023-01-11T14:35:23.280Z,100997.81
2023-01-11T14:38:05.900Z,101007.44
2023-01-11T14:41:06.358Z,101013.56
2023-01-11T14:44:34.081Z,101020.63
2023-01-11T14:47:22.663Z,101023.44
2023-01-11T14:50:17.348Z,101013.84
2023-01-11T14:52:47.805Z,101020.13
2023-01-11T14:55:26.052Z,101019.28
2023-01-11T14:57:56.475Z,101007.13
2023-01-11T15:00:23.790Z,101010.72
2023-01-11T15:03:01.696Z,101007.25
2023-01-11T15:05:32.881Z,101012.50
2023-01-11T15:08:27.892Z,101006.38
2023-01-11T15:11:40.779Z,101016.06
2023-01-11T15:15:04.538Z,101016.19
2023-01-11T15:17:51.055Z,101011.06
2023-01-11T15:20:22.001Z,101015.53
2023-01-11T15:23:16.444Z,101005.94
2023-01-11T15:25:49.379Z,101007.81
2023-01-11T15:28:48.749Z,101014.84
2023-01-11T15:31:52.065Z,101010.56
2023-01-11T15:34:31.828Z,101015.03
2023-01-11T15:37:08.384Z,101025.56
2023-01-11T15:39:57.281Z,101023.91
2023-01-11T15:43:05.951Z,101024.84
2023-01-11T15:46:41.651Z,101026.63
2023-01-11T15:49:58.604Z,101027.63
2023-01-11T15:53:07.620Z,101011.97
2023-01-11T15:56:06.825Z,101017.28
2023-01-11T15:59:13.525Z,101024.31
2023-01-11T16:02:23.212Z,101016.56
2023-01-11T16:05:19.558Z,101024.50
2023-01-11T16:08:12.787Z,101035.84
2023-01-11T16:10:55.204Z,101025.38
2023-01-11T16:14:03.395Z,101025.34
2023-01-11T16:16:40.304Z,101028.00
2023-01-11T16:19:25.997Z,101035.00
2023-01-11T16:21:59.139Z,101040.28
2023-01-11T16:24:32.655Z,101048.16
2023-01-11T16:27:04.148Z,101055.09
2023-01-11T16:29:37.780Z,101054.22
2023-01-11T16:32:20.517Z,101056.78
2023-01-11T16:34:59.783Z,101054.16
2023-01-11T16:37:36.805Z,101061.16
2023-01-11T16:40:10.611Z,101069.91
2023-01-11T16:42:52.134Z,101061.19
2023-01-11T16:45:41.399Z,101061.28
2023-01-11T16:48:16.661Z,101046.44
2023-01-11T16:51:08.361Z,101049.13
2023-01-11T16:53:39.748Z,101047.47
2023-01-11T16:56:16.502Z,101045.78
2023-01-11T16:59:02.096Z,101044.09
2023-01-11T17:01:55.945Z,101059.88
2023-01-11T17:04:32.688Z,101070.44
2023-01-11T17:07:20.802Z,101062.59
2023-01-11T17:09:48.714Z,101072.31
2023-01-11T17:12:26.357Z,101069.72
2023-01-11T17:15:37.021Z,101078.50
2023-01-11T17:18:04.910Z,101072.44
2023-01-11T17:20:33.375Z,101082.94
2023-01-11T17:23:00.933Z,101079.44
2023-01-11T17:25:44.366Z,101071.56
2023-01-11T17:28:20.090Z,101066.31
2023-01-11T17:30:52.327Z,101063.72
2023-01-11T17:33:32.877Z,101060.19
2023-01-11T17:36:05.691Z,101060.25
2023-01-11T17:38:36.342Z,101063.75
2023-01-11T17:41:27.540Z,101062.91
2023-01-11T17:44:14.021Z,101055.06
2023-01-11T17:46:41.814Z,101069.06
2023-01-11T17:49:22.961Z,101069.91
2023-01-11T17:51:50.488Z,101076.03
2023-01-11T17:54:23.446Z,101064.69
2023-01-11T17:56:58.976Z,101063.81
2023-01-11T17:59:30.204Z,101070.00
2023-01-11T18:02:05.664Z,101061.22
2023-01-11T18:04:33.357Z,101055.97
2023-01-11T18:07:16.756Z,101058.56
2023-01-11T18:09:57.295Z,101069.06
2023-01-11T18:12:34.258Z,101063.84
2023-01-11T18:15:06.893Z,101066.47
2023-01-11T18:17:40.231Z,101068.22
2023-01-11T18:20:10.530Z,101061.19
2023-01-11T18:22:41.937Z,101048.06
2023-01-11T18:25:21.238Z,101044.53
2023-01-11T18:27:50.222Z,101032.34
2023-01-11T18:30:32.921Z,101044.56
2023-01-11T18:33:11.599Z,101039.38
2023-01-11T18:35:44.675Z,101038.53
2023-01-11T18:38:23.232Z,101039.38
2023-01-11T18:40:53.581Z,101036.75
2023-01-11T18:43:29.979Z,101044.63
2023-01-11T18:45:57.506Z,101038.53
2023-01-11T18:48:24.935Z,101033.22
2023-01-11T18:50:54.514Z,101036.75
2023-01-11T18:53:23.584Z,101015.78
2023-01-11T18:55:51.169Z,101013.09
2023-01-11T18:58:18.640Z,101005.22
2023-01-11T19:00:46.085Z,101000.81
2023-01-11T19:05:43.109Z,101003.38
2023-01-11T19:08:10.535Z,100991.03
2023-01-11T19:10:38.375Z,100999.75
2023-01-11T19:13:06.014Z,100984.84
2023-01-11T19:15:35.921Z,100992.69
2023-01-11T19:18:03.968Z,100985.66
2023-01-11T19:23:04.122Z,101004.75
2023-01-11T19:25:34.151Z,100987.22
2023-01-11T19:28:06.026Z,100995.06
2023-01-11T19:30:33.617Z,100988.91
2023-01-11T19:33:01.020Z,100965.28
2023-01-11T19:35:28.488Z,100966.13
2023-01-11T19:37:56.357Z,100965.25
2023-01-11T19:40:23.907Z,100955.59
2023-01-11T19:42:52.475Z,100942.47
2023-01-11T19:45:19.989Z,100938.06
2023-01-11T19:47:47.558Z,100940.69
2023-01-11T19:50:19.628Z,100945.06
2023-01-11T19:52:47.013Z,100936.28
2023-01-11T19:55:14.509Z,100934.50
2023-01-11T19:57:41.999Z,100930.09
2023-01-11T20:00:12.245Z,100930.09
2023-01-11T20:02:42.424Z,100924.81
2023-01-11T20:05:10.044Z,100934.38
2023-01-11T20:07:37.529Z,100923.88
2023-01-11T20:10:05.514Z,100924.72
2023-01-11T20:12:32.999Z,100929.09
2023-01-11T20:15:05.356Z,100930.00
2023-01-11T20:17:35.380Z,100930.09
2023-01-11T20:20:02.939Z,100931.13
2023-01-11T20:22:30.381Z,100925.97
2023-01-11T20:24:58.067Z,100926.09
2023-01-11T20:27:25.596Z,100925.34
2023-01-11T20:29:53.000Z,100925.47
2023-01-11T20:32:39.887Z,100925.59
2023-01-11T20:35:09.049Z,100911.72
2023-01-11T20:37:36.502Z,100911.81
2023-01-11T20:40:04.501Z,100904.00
2023-01-11T20:42:31.896Z,100907.56
2023-01-11T20:44:59.304Z,100895.41
2023-01-11T20:47:26.713Z,100867.50
2023-01-11T20:49:54.261Z,100873.69
2023-01-11T20:52:21.747Z,100878.97
2023-01-11T20:54:49.213Z,100888.59
2023-01-11T20:57:18.800Z,100880.81
2023-01-11T20:59:49.113Z,100888.72
2023-01-11T21:02:17.408Z,100897.50
2023-01-11T21:04:44.885Z,100889.69
2023-01-11T21:07:12.642Z,100881.88
2023-01-11T21:09:45.211Z,100905.50
2023-01-11T21:12:21.199Z,100900.25
2023-01-11T21:14:49.096Z,100913.44
2023-01-11T21:17:17.750Z,100902.09
2023-01-11T21:19:52.991Z,100911.72
2023-01-11T21:22:20.365Z,100903.03
2023-01-11T21:24:48.362Z,100896.03
2023-01-11T21:27:15.889Z,100888.19
2023-01-11T21:29:43.319Z,100896.03
2023-01-11T21:32:10.752Z,100902.19
2023-01-11T21:34:38.202Z,100906.53
2023-01-11T21:37:05.641Z,100896.13
2023-01-11T21:39:33.111Z,100885.66
2023-01-11T21:42:01.149Z,100886.56
2023-01-11T21:44:33.471Z,100883.97
2023-01-11T21:47:04.843Z,100874.38
2023-01-11T21:49:33.564Z,100873.50
2023-01-11T21:52:01.405Z,100861.28
2023-01-11T21:54:31.720Z,100861.28
2023-01-11T21:56:59.161Z,100874.34
2023-01-11T21:59:26.704Z,100863.88
2023-01-11T22:01:54.094Z,100864.72
2023-01-11T22:04:21.820Z,100870.78
2023-01-11T22:06:54.518Z,100865.53
2023-01-11T22:09:25.779Z,100868.97
2023-01-11T22:11:53.337Z,100878.53
2023-01-11T22:14:21.318Z,100867.09
2023-01-11T22:16:48.825Z,100879.28
2023-01-11T22:19:28.063Z,100867.00
2023-01-11T22:21:55.530Z,100879.16
2023-01-11T22:24:23.041Z,100876.47
2023-01-11T22:26:50.487Z,100879.91
2023-01-11T22:29:25.622Z,100872.94
2023-01-11T22:32:00.967Z,100874.69
2023-01-11T22:34:34.172Z,100862.50
2023-01-11T22:37:01.874Z,100867.78
2023-01-11T22:39:29.506Z,100864.28
2023-01-11T22:41:56.959Z,100867.81
2023-01-11T22:44:24.565Z,100877.41
2023-01-11T22:46:52.264Z,100878.34
2023-01-11T22:49:19.789Z,100889.69
2023-01-11T22:51:47.744Z,100868.72
2023-01-11T22:54:15.252Z,100876.59
2023-01-11T22:56:42.689Z,100869.59
2023-01-11T22:59:11.047Z,100877.50
2023-01-11T23:01:41.469Z,100875.75
2023-01-11T23:04:13.938Z,100872.28
2023-01-11T23:06:42.792Z,100881.91
2023-01-11T23:09:15.919Z,100881.88
2023-01-11T23:12:03.560Z,100892.38
2023-01-11T23:14:32.932Z,100888.91
2023-01-11T23:17:07.192Z,100895.00
2023-01-11T23:19:38.023Z,100895.00
2023-01-11T23:22:07.309Z,100888.06
2023-01-11T23:24:37.298Z,100885.41
2023-01-11T23:27:05.383Z,100870.56
2023-01-11T23:29:32.834Z,100868.81
2023-01-11T23:32:00.549Z,100890.66
2023-01-11T23:34:28.040Z,100881.88
2023-01-11T23:36:55.662Z,100894.16
2023-01-11T23:39:23.896Z,100865.25
2023-01-11T23:42:09.956Z,100893.22
2023-01-11T23:44:37.376Z,100882.72
2023-01-11T23:47:24.647Z,100892.34
2023-01-11T23:49:58.243Z,100886.22
2023-01-11T23:52:30.185Z,100874.88
2023-01-11T23:54:57.887Z,100880.13
2023-01-11T23:57:26.487Z,100889.75
2023-01-11T23:59:53.952Z,100881.03
